sensor_id;sensor_type;location;lat;lon;timestamp;P1;durP1;ratioP1;P2;durP2;ratioP2
44664;SDS011;30382;48.802;9.388;2023-02-23T00:02:29;18.43;;;15.03;;
44664;SDS011;30382;48.802;9.388;2023-02-23T00:05:15;22.63;;;14.57;;
44664;SDS011;30382;48.802;9.388;2023-02-23T00:08:00;18.07;;;14.43;;
44664;SDS011;30382;48.802;9.388;2023-02-23T00:10:45;20.13;;;15.80;;
44664;SDS011;30382;48.802;9.388;2023-02-23T00:13:29;17.00;;;15.00;;
44664;SDS011;30382;48.802;9.388;2023-02-23T00:16:15;19.93;;;15.07;;
44664;SDS011;30382;48.802;9.388;2023-02-23T00:18:59;19.27;;;15.93;;
44664;SDS011;30382;48.802;9.388;2023-02-23T00:21:44;17.83;;;15.77;;
44664;SDS011;30382;48.802;9.388;2023-02-23T00:24:29;20.00;;;14.80;;
44664;SDS011;30382;48.802;9.388;2023-02-23T00:27:13;15.10;;;13.50;;
44664;SDS011;30382;48.802;9.388;2023-02-23T00:30:04;18.30;;;14.20;;
44664;SDS011;30382;48.802;9.388;2023-02-23T00:32:50;22.83;;;15.90;;
44664;SDS011;30382;48.802;9.388;2023-02-23T00:35:36;20.20;;;15.60;;
44664;SDS011;30382;48.802;9.388;2023-02-23T00:38:20;19.60;;;14.07;;
44664;SDS011;30382;48.802;9.388;2023-02-23T00:41:09;17.33;;;15.40;;
44664;SDS011;30382;48.802;9.388;2023-02-23T00:43:54;19.53;;;14.50;;
44664;SDS011;30382;48.802;9.388;2023-02-23T00:46:39;19.80;;;14.40;;
44664;SDS011;30382;48.802;9.388;2023-02-23T00:49:25;20.20;;;15.33;;
44664;SDS011;30382;48.802;9.388;2023-02-23T00:52:10;21.67;;;15.27;;
44664;SDS011;30382;48.802;9.388;2023-02-23T00:54:57;19.80;;;15.73;;
44664;SDS011;30382;48.802;9.388;2023-02-23T00:57:41;16.53;;;13.77;;
44664;SDS011;30382;48.802;9.388;2023-02-23T01:00:26;20.63;;;15.10;;
44664;SDS011;30382;48.802;9.388;2023-02-23T01:03:12;19.17;;;14.23;;
44664;SDS011;30382;48.802;9.388;2023-02-23T01:05:59;18.80;;;14.53;;
44664;SDS011;30382;48.802;9.388;2023-02-23T01:08:48;19.10;;;13.73;;
44664;SDS011;30382;48.802;9.388;2023-02-23T01:11:33;17.33;;;13.60;;
44664;SDS011;30382;48.802;9.388;2023-02-23T01:14:18;19.93;;;14.67;;
44664;SDS011;30382;48.802;9.388;2023-02-23T01:17:02;17.00;;;14.50;;
44664;SDS011;30382;48.802;9.388;2023-02-23T01:19:46;17.80;;;15.00;;
44664;SDS011;30382;48.802;9.388;2023-02-23T01:22:31;19.73;;;13.83;;
44664;SDS011;30382;48.802;9.388;2023-02-23T01:25:16;22.77;;;15.03;;
44664;SDS011;30382;48.802;9.388;2023-02-23T01:28:00;18.33;;;14.43;;
44664;SDS011;30382;48.802;9.388;2023-02-23T01:30:45;18.10;;;14.40;;
44664;SDS011;30382;48.802;9.388;2023-02-23T01:33:29;19.10;;;15.30;;
44664;SDS011;30382;48.802;9.388;2023-02-23T01:36:14;17.33;;;14.73;;
44664;SDS011;30382;48.802;9.388;2023-02-23T01:38:59;17.63;;;15.23;;
44664;SDS011;30382;48.802;9.388;2023-02-23T01:41:43;17.03;;;14.03;;
44664;SDS011;30382;48.802;9.388;2023-02-23T01:47:15;19.67;;;16.40;;
44664;SDS011;30382;48.802;9.388;2023-02-23T01:50:03;20.77;;;15.43;;
44664;SDS011;30382;48.802;9.388;2023-02-23T01:52:48;22.63;;;16.60;;
44664;SDS011;30382;48.802;9.388;2023-02-23T01:55:34;17.53;;;14.40;;
44664;SDS011;30382;48.802;9.388;2023-02-23T01:58:18;17.23;;;15.03;;
44664;SDS011;30382;48.802;9.388;2023-02-23T02:01:03;25.03;;;16.90;;
44664;SDS011;30382;48.802;9.388;2023-02-23T02:03:49;19.67;;;15.47;;
44664;SDS011;30382;48.802;9.388;2023-02-23T02:06:36;20.60;;;16.10;;
44664;SDS011;30382;48.802;9.388;2023-02-23T02:09:21;19.67;;;15.07;;
44664;SDS011;30382;48.802;9.388;2023-02-23T02:12:10;25.23;;;16.87;;
44664;SDS011;30382;48.802;9.388;2023-02-23T02:14:55;23.90;;;17.33;;
44664;SDS011;30382;48.802;9.388;2023-02-23T02:26:43;23.17;;;15.10;;
44664;SDS011;30382;48.802;9.388;2023-02-23T02:29:48;17.90;;;14.13;;
44664;SDS011;30382;48.802;9.388;2023-02-23T02:35:47;20.70;;;15.33;;
44664;SDS011;30382;48.802;9.388;2023-02-23T02:41:48;19.13;;;15.27;;
44664;SDS011;30382;48.802;9.388;2023-02-23T02:44:42;18.17;;;15.30;;
44664;SDS011;30382;48.802;9.388;2023-02-23T02:50:14;17.53;;;14.50;;
44664;SDS011;30382;48.802;9.388;2023-02-23T02:53:02;22.03;;;16.10;;
44664;SDS011;30382;48.802;9.388;2023-02-23T02:55:50;21.17;;;16.17;;
44664;SDS011;30382;48.802;9.388;2023-02-23T02:58:36;19.27;;;14.60;;
44664;SDS011;30382;48.802;9.388;2023-02-23T03:01:24;18.50;;;14.83;;
44664;SDS011;30382;48.802;9.388;2023-02-23T03:04:29;17.63;;;13.50;;
44664;SDS011;30382;48.802;9.388;2023-02-23T03:07:44;17.30;;;14.90;;
44664;SDS011;30382;48.802;9.388;2023-02-23T03:16:59;15.53;;;13.40;;
44664;SDS011;30382;48.802;9.388;2023-02-23T03:20:10;17.30;;;14.13;;
44664;SDS011;30382;48.802;9.388;2023-02-23T03:23:20;18.30;;;15.00;;
44664;SDS011;30382;48.802;9.388;2023-02-23T03:26:30;19.40;;;15.93;;
44664;SDS011;30382;48.802;9.388;2023-02-23T03:29:52;20.87;;;15.73;;
44664;SDS011;30382;48.802;9.388;2023-02-23T03:32:59;17.50;;;14.70;;
44664;SDS011;30382;48.802;9.388;2023-02-23T03:36:11;20.13;;;14.80;;
44664;SDS011;30382;48.802;9.388;2023-02-23T03:39:36;21.13;;;15.53;;
44664;SDS011;30382;48.802;9.388;2023-02-23T03:42:38;20.50;;;17.50;;
44664;SDS011;30382;48.802;9.388;2023-02-23T03:45:42;23.13;;;18.27;;
44664;SDS011;30382;48.802;9.388;2023-02-23T03:48:46;22.17;;;17.23;;
44664;SDS011;30382;48.802;9.388;2023-02-23T03:51:51;29.67;;;20.47;;
44664;SDS011;30382;48.802;9.388;2023-02-23T03:54:56;22.30;;;18.70;;
44664;SDS011;30382;48.802;9.388;2023-02-23T03:58:00;28.40;;;20.57;;
44664;SDS011;30382;48.802;9.388;2023-02-23T04:01:04;24.40;;;19.63;;
44664;SDS011;30382;48.802;9.388;2023-02-23T04:04:09;23.73;;;17.27;;
44664;SDS011;30382;48.802;9.388;2023-02-23T04:07:12;20.57;;;17.03;;
44664;SDS011;30382;48.802;9.388;2023-02-23T04:10:17;27.97;;;20.10;;
44664;SDS011;30382;48.802;9.388;2023-02-23T04:13:21;19.90;;;17.00;;
44664;SDS011;30382;48.802;9.388;2023-02-23T04:16:07;26.33;;;18.90;;
44664;SDS011;30382;48.802;9.388;2023-02-23T04:18:51;20.73;;;17.70;;
44664;SDS011;30382;48.802;9.388;2023-02-23T04:21:36;23.37;;;17.83;;
44664;SDS011;30382;48.802;9.388;2023-02-23T04:24:20;20.40;;;18.10;;
44664;SDS011;30382;48.802;9.388;2023-02-23T04:27:05;21.10;;;16.57;;
44664;SDS011;30382;48.802;9.388;2023-02-23T04:29:50;23.63;;;18.60;;
44664;SDS011;30382;48.802;9.388;2023-02-23T04:32:34;28.00;;;18.70;;
44664;SDS011;30382;48.802;9.388;2023-02-23T04:35:19;25.83;;;17.47;;
44664;SDS011;30382;48.802;9.388;2023-02-23T04:38:03;25.50;;;17.73;;
44664;SDS011;30382;48.802;9.388;2023-02-23T04:40:47;23.13;;;18.77;;
44664;SDS011;30382;48.802;9.388;2023-02-23T04:43:32;24.47;;;20.10;;
44664;SDS011;30382;48.802;9.388;2023-02-23T04:46:16;22.93;;;19.13;;
44664;SDS011;30382;48.802;9.388;2023-02-23T04:49:00;23.40;;;19.40;;
44664;SDS011;30382;48.802;9.388;2023-02-23T04:51:44;23.97;;;18.30;;
44664;SDS011;30382;48.802;9.388;2023-02-23T04:54:29;24.53;;;18.47;;
44664;SDS011;30382;48.802;9.388;2023-02-23T04:57:13;21.60;;;18.57;;
44664;SDS011;30382;48.802;9.388;2023-02-23T04:59:58;20.93;;;17.50;;
44664;SDS011;30382;48.802;9.388;2023-02-23T05:02:42;19.50;;;16.10;;
44664;SDS011;30382;48.802;9.388;2023-02-23T05:05:28;23.43;;;19.03;;
44664;SDS011;30382;48.802;9.388;2023-02-23T05:08:12;21.23;;;17.80;;
44664;SDS011;30382;48.802;9.388;2023-02-23T05:10:56;21.57;;;17.10;;
44664;SDS011;30382;48.802;9.388;2023-02-23T05:13:41;25.03;;;19.67;;
44664;SDS011;30382;48.802;9.388;2023-02-23T05:16:25;23.70;;;19.43;;
44664;SDS011;30382;48.802;9.388;2023-02-23T05:19:10;21.50;;;17.33;;
44664;SDS011;30382;48.802;9.388;2023-02-23T05:21:54;21.03;;;16.60;;
44664;SDS011;30382;48.802;9.388;2023-02-23T05:24:39;20.50;;;16.10;;
44664;SDS011;30382;48.802;9.388;2023-02-23T05:27:23;21.20;;;16.93;;
44664;SDS011;30382;48.802;9.388;2023-02-23T05:30:08;22.73;;;15.87;;
44664;SDS011;30382;48.802;9.388;2023-02-23T05:32:52;22.50;;;18.33;;
44664;SDS011;30382;48.802;9.388;2023-02-23T05:35:38;22.00;;;17.00;;
44664;SDS011;30382;48.802;9.388;2023-02-23T05:38:23;22.97;;;18.47;;
44664;SDS011;30382;48.802;9.388;2023-02-23T05:41:08;21.50;;;18.83;;
44664;SDS011;30382;48.802;9.388;2023-02-23T05:43:53;22.50;;;19.43;;
44664;SDS011;30382;48.802;9.388;2023-02-23T05:46:37;23.30;;;17.83;;
44664;SDS011;30382;48.802;9.388;2023-02-23T05:49:21;23.43;;;18.37;;
44664;SDS011;30382;48.802;9.388;2023-02-23T05:52:06;23.33;;;19.00;;
44664;SDS011;30382;48.802;9.388;2023-02-23T05:54:51;27.73;;;18.43;;
44664;SDS011;30382;48.802;9.388;2023-02-23T05:57:36;26.37;;;19.23;;
44664;SDS011;30382;48.802;9.388;2023-02-23T06:00:20;24.83;;;19.60;;
44664;SDS011;30382;48.802;9.388;2023-02-23T06:03:05;28.17;;;19.90;;
44664;SDS011;30382;48.802;9.388;2023-02-23T06:05:52;23.60;;;18.40;;
44664;SDS011;30382;48.802;9.388;2023-02-23T06:08:36;22.07;;;18.27;;
44664;SDS011;30382;48.802;9.388;2023-02-23T06:11:21;21.73;;;17.67;;
44664;SDS011;30382;48.802;9.388;2023-02-23T06:14:05;26.00;;;17.60;;
44664;SDS011;30382;48.802;9.388;2023-02-23T06:23:01;22.93;;;19.00;;
44664;SDS011;30382;48.802;9.388;2023-02-23T06:26:02;27.20;;;19.13;;
44664;SDS011;30382;48.802;9.388;2023-02-23T06:28:47;25.57;;;18.93;;
44664;SDS011;30382;48.802;9.388;2023-02-23T06:31:37;25.60;;;19.53;;
44664;SDS011;30382;48.802;9.388;2023-02-23T06:35:37;32.67;;;21.20;;
44664;SDS011;30382;48.802;9.388;2023-02-23T06:38:38;27.90;;;19.17;;
44664;SDS011;30382;48.802;9.388;2023-02-23T06:41:31;24.07;;;19.80;;
44664;SDS011;30382;48.802;9.388;2023-02-23T06:44:17;22.23;;;18.90;;
44664;SDS011;30382;48.802;9.388;2023-02-23T06:47:07;24.67;;;19.87;;
44664;SDS011;30382;48.802;9.388;2023-02-23T07:00:30;23.90;;;19.37;;
44664;SDS011;30382;48.802;9.388;2023-02-23T07:04:05;32.33;;;24.60;;
44664;SDS011;30382;48.802;9.388;2023-02-23T07:10:25;25.60;;;20.57;;
44664;SDS011;30382;48.802;9.388;2023-02-23T07:14:16;29.50;;;23.53;;
44664;SDS011;30382;48.802;9.388;2023-02-23T07:17:05;32.30;;;22.80;;
44664;SDS011;30382;48.802;9.388;2023-02-23T07:19:57;26.87;;;22.43;;
44664;SDS011;30382;48.802;9.388;2023-02-23T07:26:36;25.93;;;21.27;;
44664;SDS011;30382;48.802;9.388;2023-02-23T07:40:37;30.00;;;22.27;;
44664;SDS011;30382;48.802;9.388;2023-02-23T07:43:43;25.67;;;20.10;;
44664;SDS011;30382;48.802;9.388;2023-02-23T07:57:19;32.77;;;23.17;;
44664;SDS011;30382;48.802;9.388;2023-02-23T08:00:53;37.33;;;25.70;;
44664;SDS011;30382;48.802;9.388;2023-02-23T08:03:43;31.40;;;24.60;;
44664;SDS011;30382;48.802;9.388;2023-02-23T08:41:56;33.53;;;22.97;;
44664;SDS011;30382;48.802;9.388;2023-02-23T08:44:52;25.83;;;23.07;;
44664;SDS011;30382;48.802;9.388;2023-02-23T09:04:07;24.90;;;22.00;;
